Ash Creek, OR

5:24 PM PDT on September 23, 2014 (GMT -0700)
South Burlingame | Change Station
CLOSE
Current Station
Personal Weather Station
Location: Portland, OR
Elevation: 446 ft
Nearby Weather Stations
Active Advisory: Special Statement

Elev 446 ft 45.46 °N, 122.68 °W | Updated 2 seconds ago

Mostly Cloudy
Mostly Cloudy
65.0 °F
Feels Like 65.0 °F
N
0.0
Wind Variable Wind from North
Gusts 0.0 mph

Today
High -- | Low -- °F
--% Chance of Precip.
Yesterday
High -- | Low -- °F
Precip. -- in
6:59 AM 7:06 PM
Waning Crescent, 0% visible
Pressure 29.81 in
Visibility 6.0 miles
Clouds Few 8500 ft
Overcast 10000 ft
Dew Point 60 °F
Humidity 85%
Rainfall 0.00 in
Snow Depth 0 in , 0 in , 0 in
UV 1 out of 12
Pollen .40 out of 12
Ozone Good
PM2.5 Moderate
Flu Activity Not available.
METAR KPDX 232353Z 11008KT 6SM -RA FU FEW085 OVC100 18/17 A2981 RMK AO2 SLP093 P0003 60008 T01830172 10200 20183 58012

More Conditions Fewer Conditions

Pressure 29.81 in
Visibility 6.0 miles
Clouds Few 8500 ft
Overcast 10000 ft
Dew Point 60 °F
Humidity 85%
Rainfall 0.00 in
Snow Depth 0 in , 0 in , 0 in
UV 1 out of 12
Pollen .40 out of 12
Ozone Good
PM2.5 Moderate
Flu Activity Not available.
METAR KPDX 232353Z 11008KT 6SM -RA FU FEW085 OVC100 18/17 A2981 RMK AO2 SLP093 P0003 60008 T01830172 10200 20183 58012

More Conditions Fewer Conditions

10-Day Weather Forecast

Almanac

Astronomy

Sep. 23, 2014 Rise Set
Actual Time 6:59 AM PDT 7:06 PM PDT
Civil Twilight 6:29 AM PDT 7:35 PM PDT
Nautical Twilight 5:54 AM PDT 8:10 PM PDT
Astronomical Twilight 5:19 AM PDT 8:45 PM PDT
Moon 6:28 AM PDT (9/23) 6:46 PM PDT (9/23)
Length of Visible Light 13h 06m
Length of Day
12h 07m
Tomorrow will be 3m 10s shorter.
Waning Crescent, 0% of the Moon is Illuminated
Today
Waning Crescent
Sep 24
New
Oct 1
First Quarter
Oct 8
Full
Oct 15
Last Quarter

Today's Extremes

State Highs State Lows

Community

WunderPhotos

Upload Photos

1,755,828 photos uploaded!

WunderBlogs® & News

Nearby

Air Quality

  Air Quality AQ Index Pollutant
Yesterday Good
OZONE
Yesterday Good
PM2.5
Current Moderate
PM2.5
Current Good
OZONE
Tuesday Good
PM2.5
Wednesday Good
PM2.5

Snow Depth

Station Depth Elevation
Fish Lake 0 in 4665 ft
Fourmile Lake 0 in 6000 ft
Billie Creek Divide 0 in 5300 ft
Blue Mountain Spring 0 in 5900 ft
Saddle Mountain 4 in 3250 ft

Earthquake Activity

City Distance Mag. Time & Date
No recent earthquake activity has been reported nearby.
Minimum magnitude displayed is 2.5.

Coastal Water Temperatures

Place Temperature
No Stations Reporting

Nearby Weather Stations